createdAt,value
2022-09-14T00:01:43.296Z,143
2022-09-14T00:16:43.246Z,76
2022-09-14T00:31:43.200Z,0
2022-09-14T00:46:43.095Z,2
2022-09-14T01:01:43.133Z,0
2022-09-14T01:16:43.117Z,1
2022-09-14T01:31:43.100Z,6
2022-09-14T01:46:43.022Z,0
2022-09-14T02:01:44.700Z,0
2022-09-14T02:16:43.003Z,0
2022-09-14T02:31:43.089Z,0
2022-09-14T02:46:42.968Z,0
2022-09-14T03:01:42.945Z,0
2022-09-14T03:16:42.817Z,0
2022-09-14T03:31:42.844Z,0
2022-09-14T03:46:42.848Z,0
2022-09-14T04:16:42.712Z,0
2022-09-14T04:31:42.834Z,0
2022-09-14T04:46:46.445Z,0
2022-09-14T05:01:42.751Z,0
2022-09-14T05:16:42.612Z,0
2022-09-14T05:31:42.663Z,1
2022-09-14T05:46:42.590Z,0
2022-09-14T06:01:42.625Z,2
2022-09-14T06:16:42.519Z,0
2022-09-14T06:31:42.482Z,2
2022-09-14T06:46:46.978Z,3
2022-09-14T07:01:42.439Z,0
2022-09-14T07:16:42.413Z,0
2022-09-14T07:31:42.378Z,1
2022-09-14T07:46:42.356Z,0
2022-09-14T08:01:42.442Z,0
2022-09-14T08:16:42.418Z,75
2022-09-14T08:31:42.390Z,115
2022-09-14T08:46:42.252Z,46
2022-09-14T09:01:42.257Z,163
2022-09-14T09:16:42.287Z,7
2022-09-14T09:31:42.253Z,205
2022-09-14T09:46:42.191Z,149
2022-09-14T10:01:42.283Z,97
2022-09-14T10:16:42.126Z,27
2022-09-14T10:31:42.177Z,2
2022-09-14T10:46:42.136Z,12
2022-09-14T11:01:42.114Z,1
2022-09-14T11:16:41.990Z,0
2022-09-14T11:31:41.989Z,0
2022-09-14T11:46:42.006Z,119
2022-09-14T12:01:41.940Z,166
2022-09-14T12:16:41.881Z,136
2022-09-14T12:31:41.972Z,110
2022-09-14T12:46:41.896Z,123
2022-09-14T13:01:41.974Z,154
2022-09-14T13:16:41.774Z,127
2022-09-14T13:31:41.780Z,178
2022-09-14T13:46:41.779Z,166
2022-09-14T14:01:41.858Z,195
2022-09-14T14:16:41.689Z,164
2022-09-14T14:31:41.703Z,176
2022-09-14T14:46:41.610Z,102
2022-09-14T15:01:41.619Z,187
2022-09-14T15:16:41.641Z,99
2022-09-14T15:31:41.605Z,57
2022-09-14T15:46:41.534Z,29
2022-09-14T16:01:41.558Z,153
2022-09-14T16:16:41.667Z,230
2022-09-14T16:31:41.531Z,117
2022-09-14T16:46:41.425Z,66
2022-09-14T17:01:41.472Z,29
2022-09-14T17:16:41.380Z,38
2022-09-14T17:46:48.575Z,96
2022-09-14T18:01:41.281Z,29
2022-09-14T18:16:41.406Z,125
2022-09-14T18:31:41.307Z,244
2022-09-14T18:46:41.256Z,68
2022-09-14T19:01:41.292Z,65
2022-09-14T19:16:41.125Z,125
2022-09-14T19:31:41.174Z,127
2022-09-14T19:46:41.138Z,184
2022-09-14T20:01:41.191Z,235
2022-09-14T20:16:41.006Z,244
2022-09-14T20:31:40.990Z,204
2022-09-14T20:46:41.004Z,192
2022-09-14T21:01:40.966Z,42
2022-09-14T21:16:40.914Z,221
2022-09-14T21:31:40.911Z,186
2022-09-14T21:46:40.906Z,124
2022-09-14T22:01:40.922Z,1
2022-09-14T22:16:40.797Z,10
2022-09-14T22:31:40.801Z,2
2022-09-14T22:46:40.740Z,0
2022-09-14T23:01:40.812Z,0
2022-09-14T23:16:40.747Z,0
2022-09-14T23:31:40.701Z,0
2022-09-14T23:46:40.639Z,0
